createdAt,value
2019-06-15T00:02:12.402Z,33.30
2019-06-15T00:05:04.507Z,33.30
2019-06-15T00:07:57.354Z,33.30
2019-06-15T00:10:50.744Z,33.30
2019-06-15T00:13:44.129Z,33.30
2019-06-15T00:16:36.308Z,33.30
2019-06-15T00:19:28.404Z,33.30
2019-06-15T00:22:20.441Z,33.30
2019-06-15T00:25:12.773Z,33.30
2019-06-15T00:28:04.575Z,33.30
2019-06-15T00:30:56.496Z,33.30
2019-06-15T00:33:48.303Z,33.30
2019-06-15T00:36:40.414Z,33.30
2019-06-15T00:39:34.487Z,33.30
2019-06-15T00:42:26.627Z,33.30
2019-06-15T00:45:18.887Z,33.30
2019-06-15T00:48:16.619Z,33.30
2019-06-15T00:51:08.912Z,33.30
2019-06-15T00:54:01.608Z,33.30
2019-06-15T00:56:54.866Z,33.30
2019-06-15T00:59:46.841Z,33.30
2019-06-15T01:02:39.151Z,33.30
2019-06-15T01:05:32.098Z,33.30
2019-06-15T01:08:24.516Z,33.30
2019-06-15T01:11:16.873Z,33.30
2019-06-15T01:14:08.879Z,33.30
2019-06-15T01:17:02.704Z,33.20
2019-06-15T01:19:54.477Z,33.20
2019-06-15T01:22:47.024Z,33.30
2019-06-15T01:25:38.839Z,33.30
2019-06-15T01:28:31.145Z,33.20
2019-06-15T01:31:22.995Z,33.30
2019-06-15T01:34:14.843Z,33.30
2019-06-15T01:37:06.673Z,33.30
2019-06-15T01:39:58.522Z,33.30
2019-06-15T01:42:51.149Z,33.30
2019-06-15T01:45:43.084Z,33.30
2019-06-15T01:48:35.256Z,33.30
2019-06-15T01:51:28.392Z,33.30
2019-06-15T01:54:20.163Z,33.30
2019-06-15T01:57:13.339Z,33.30
2019-06-15T02:00:05.458Z,33.30
2019-06-15T02:02:57.424Z,33.30
2019-06-15T02:05:49.358Z,33.30
2019-06-15T02:08:41.365Z,33.30
2019-06-15T02:11:33.509Z,33.30
2019-06-15T02:14:25.451Z,33.30
2019-06-15T02:17:17.954Z,33.30
2019-06-15T02:20:09.782Z,33.30
2019-06-15T02:23:02.163Z,33.30
2019-06-15T02:25:54.573Z,33.30
2019-06-15T02:28:48.765Z,33.30
2019-06-15T02:31:41.043Z,33.30
2019-06-15T02:34:33.476Z,33.30
2019-06-15T02:37:26.162Z,33.30
2019-06-15T02:40:18.130Z,33.30
2019-06-15T02:43:10.918Z,33.30
2019-06-15T02:46:03.195Z,33.30
2019-06-15T02:48:56.895Z,33.30
2019-06-15T02:51:49.528Z,33.30
2019-06-15T02:54:42.731Z,33.30
2019-06-15T02:57:35.793Z,33.30
2019-06-15T03:00:40.551Z,33.30
2019-06-15T03:03:33.337Z,33.30
2019-06-15T03:06:25.574Z,33.30
2019-06-15T03:09:18.611Z,33.30
2019-06-15T03:12:14.426Z,33.30
2019-06-15T03:15:08.680Z,33.30
2019-06-15T03:18:01.628Z,33.30
2019-06-15T03:20:56.181Z,33.30
2019-06-15T03:23:48.456Z,33.30
2019-06-15T03:26:42.536Z,33.30
2019-06-15T03:29:34.895Z,33.30
2019-06-15T03:32:27.658Z,33.30
2019-06-15T03:35:21.059Z,33.30
2019-06-15T03:38:13.009Z,33.30
2019-06-15T03:41:05.769Z,33.30
2019-06-15T03:43:57.877Z,33.30
2019-06-15T03:46:50.428Z,33.30
2019-06-15T03:49:42.371Z,33.30
2019-06-15T03:52:34.812Z,33.30
2019-06-15T03:55:27.484Z,33.30
2019-06-15T03:58:19.933Z,33.30
2019-06-15T04:01:18.190Z,33.30
2019-06-15T04:04:10.627Z,33.30
2019-06-15T04:07:02.629Z,33.30
2019-06-15T04:09:56.039Z,33.30
2019-06-15T04:12:49.137Z,33.30
2019-06-15T04:15:41.726Z,33.30
2019-06-15T04:18:35.368Z,33.30
2019-06-15T04:21:27.768Z,33.30
2019-06-15T04:24:19.734Z,33.30
2019-06-15T04:27:12.264Z,33.30
2019-06-15T04:30:04.749Z,33.30
2019-06-15T04:32:59.162Z,33.30
2019-06-15T04:35:51.593Z,33.30
2019-06-15T04:38:43.910Z,33.30
2019-06-15T04:41:37.513Z,33.30
2019-06-15T04:44:31.851Z,33.30
2019-06-15T04:47:24.181Z,33.30
2019-06-15T04:50:24.327Z,33.30
2019-06-15T04:56:50.961Z,33.10
2019-06-15T04:59:42.703Z,33.00
2019-06-15T05:02:34.575Z,32.80
2019-06-15T05:05:27.339Z,32.80
2019-06-15T05:08:19.233Z,32.80
2019-06-15T05:11:47.551Z,32.90
2019-06-15T05:15:03.410Z,33.00
2019-06-15T05:18:26.154Z,33.10
2019-06-15T05:21:21.550Z,33.10
2019-06-15T05:24:14.485Z,33.10
2019-06-15T05:27:10.321Z,33.10
2019-06-15T05:30:08.733Z,33.10
2019-06-15T05:33:05.054Z,33.10
2019-06-15T05:35:59.335Z,33.10
2019-06-15T05:39:00.175Z,33.10
2019-06-15T05:41:54.511Z,33.00
2019-06-15T08:25:16.361Z,32.50
2019-06-15T08:28:09.653Z,32.50
2019-06-15T08:31:04.551Z,32.40
2019-06-15T08:33:57.709Z,32.10
2019-06-15T08:36:50.995Z,31.70
2019-06-15T08:39:48.005Z,31.40
2019-06-15T08:42:49.971Z,31.20
2019-06-15T08:49:23.229Z,30.70
2019-06-15T08:55:41.709Z,30.40
2019-06-15T08:58:35.277Z,30.20
2019-06-15T09:01:29.204Z,30.10
2019-06-15T09:04:26.500Z,30.00
2019-06-15T09:07:25.442Z,29.80
2019-06-15T09:16:47.046Z,29.80
2019-06-15T09:34:59.053Z,30.10
2019-06-15T09:37:47.715Z,29.80
2019-06-15T09:40:47.001Z,29.70
2019-06-15T09:47:27.200Z,29.40
2019-06-15T09:50:40.695Z,29.20
2019-06-15T09:57:02.947Z,29.10
2019-06-15T10:02:28.292Z,29.20
2019-06-15T10:03:39.789Z,28.90
2019-06-15T10:06:40.441Z,28.80
2019-06-15T10:10:04.793Z,28.80
2019-06-15T10:13:03.870Z,28.80
2019-06-15T10:16:03.440Z,28.80
2019-06-15T10:19:00.718Z,28.70
2019-06-15T10:22:00.050Z,28.70
2019-06-15T10:25:01.975Z,28.70
2019-06-15T10:28:07.646Z,28.60
2019-06-15T10:31:02.585Z,28.60
2019-06-15T10:34:01.891Z,28.60
2019-06-15T10:37:02.421Z,28.60
2019-06-15T10:40:03.031Z,28.60
2019-06-15T10:43:35.977Z,28.60
2019-06-15T10:46:36.505Z,28.50
2019-06-15T10:49:37.748Z,28.50
2019-06-15T10:53:00.211Z,28.40
2019-06-15T10:55:48.087Z,28.30
2019-06-15T10:58:50.421Z,28.30
2019-06-15T11:01:48.909Z,28.20
2019-06-15T11:04:47.032Z,28.10
2019-06-15T11:07:47.307Z,28.00
2019-06-15T11:10:54.383Z,27.90
2019-06-15T11:13:50.192Z,27.80
2019-06-15T11:17:06.434Z,27.70
2019-06-15T11:20:26.567Z,27.60
2019-06-15T11:23:48.571Z,27.60
2019-06-15T11:27:09.216Z,27.60
2019-06-15T11:33:59.485Z,27.40
2019-06-15T11:36:56.319Z,27.40
2019-06-15T11:39:51.455Z,27.50
2019-06-15T11:42:49.065Z,27.80
2019-06-15T11:46:25.242Z,28.10
2019-06-15T11:49:32.758Z,28.40
2019-06-15T11:52:29.888Z,28.70
2019-06-15T11:55:39.067Z,28.90
2019-06-15T11:59:24.004Z,29.10
2019-06-15T12:02:23.254Z,29.30
2019-06-15T12:19:34.174Z,29.30
2019-06-15T12:22:42.192Z,29.40
2019-06-15T12:25:51.523Z,29.40
2019-06-15T12:28:48.972Z,29.40
2019-06-15T12:32:08.831Z,29.40
2019-06-15T12:35:23.497Z,29.40
2019-06-15T12:38:43.469Z,29.40
2019-06-15T12:41:51.280Z,29.40
2019-06-15T12:45:12.503Z,29.50
2019-06-15T12:48:07.832Z,29.50
2019-06-15T12:51:15.450Z,29.60
2019-06-15T12:54:08.299Z,29.70
2019-06-15T12:57:00.946Z,29.80
2019-06-15T12:59:53.818Z,29.90
2019-06-15T13:02:47.322Z,30.00
2019-06-15T13:05:39.802Z,30.10
2019-06-15T13:08:38.644Z,30.20
2019-06-15T13:11:41.719Z,30.30
2019-06-15T13:14:35.631Z,30.30
2019-06-15T13:17:29.646Z,30.40
2019-06-15T13:20:23.160Z,30.40
2019-06-15T13:23:15.989Z,30.50
2019-06-15T13:26:09.872Z,30.50
2019-06-15T13:29:02.698Z,30.50
2019-06-15T13:31:55.866Z,30.60
2019-06-15T13:34:49.859Z,30.70
2019-06-15T13:37:43.632Z,30.70
2019-06-15T13:40:36.258Z,30.70
2019-06-15T13:43:28.325Z,30.70
2019-06-15T13:46:21.978Z,30.70
2019-06-15T13:49:32.575Z,30.80
2019-06-15T13:52:25.315Z,30.80
2019-06-15T13:55:30.314Z,30.90
2019-06-15T13:58:24.645Z,30.90
2019-06-15T14:01:30.718Z,30.90
2019-06-15T14:04:13.289Z,31.00
2019-06-15T14:07:05.821Z,31.00
2019-06-15T14:09:59.829Z,31.00
2019-06-15T14:13:05.961Z,31.00
2019-06-15T14:15:59.635Z,31.10
2019-06-15T14:18:51.590Z,31.10
2019-06-15T14:21:44.256Z,31.10
2019-06-15T14:24:48.756Z,31.10
2019-06-15T14:27:41.719Z,31.10
2019-06-15T14:30:36.031Z,31.20
2019-06-15T14:33:28.883Z,31.20
2019-06-15T14:36:21.474Z,31.20
2019-06-15T14:39:14.131Z,31.20
2019-06-15T14:42:08.036Z,31.20
2019-06-15T14:45:00.958Z,31.30
2019-06-15T14:47:54.500Z,31.20
2019-06-15T14:53:55.334Z,31.30
2019-06-15T14:56:45.938Z,31.30
2019-06-15T14:59:52.072Z,31.40
2019-06-15T15:02:46.802Z,31.40
2019-06-15T15:05:40.184Z,31.40
2019-06-15T15:08:33.225Z,31.30
2019-06-15T15:11:28.185Z,31.40
2019-06-15T15:14:27.453Z,31.40
2019-06-15T15:17:20.182Z,31.40
2019-06-15T15:20:13.972Z,31.40
2019-06-15T15:23:06.544Z,31.40
2019-06-15T15:25:59.998Z,31.40
2019-06-15T15:28:53.262Z,31.40
2019-06-15T15:31:46.694Z,31.50
2019-06-15T15:34:39.320Z,31.40
2019-06-15T15:37:31.344Z,31.40
2019-06-15T15:40:23.748Z,31.50
2019-06-15T15:43:17.599Z,31.50
2019-06-15T15:46:09.966Z,31.50
2019-06-15T15:49:02.486Z,31.50
2019-06-15T15:51:56.628Z,31.50
2019-06-15T15:54:50.613Z,31.50
2019-06-15T15:57:42.931Z,31.50
2019-06-15T16:00:36.026Z,31.60
2019-06-15T16:03:36.762Z,31.60
2019-06-15T16:06:29.490Z,31.60
2019-06-15T16:09:22.486Z,31.60
2019-06-15T16:12:14.859Z,31.60
2019-06-15T16:15:07.887Z,31.60
2019-06-15T16:18:00.781Z,31.60
2019-06-15T16:20:54.376Z,31.60
2019-06-15T16:23:49.032Z,31.60
2019-06-15T16:26:48.264Z,31.60
2019-06-15T16:29:42.682Z,31.60
2019-06-15T16:32:37.232Z,31.60
2019-06-15T16:35:29.344Z,31.60
2019-06-15T16:41:47.545Z,31.60
2019-06-15T16:44:41.900Z,31.70
2019-06-15T16:47:36.194Z,31.70
2019-06-15T16:50:43.451Z,31.70
2019-06-15T16:53:41.201Z,31.70
2019-06-15T16:56:35.964Z,31.70
2019-06-15T16:59:28.125Z,31.70
2019-06-15T17:02:22.822Z,31.70
2019-06-15T17:05:16.916Z,31.70
2019-06-15T17:08:27.543Z,31.70
2019-06-15T17:11:21.076Z,31.70
2019-06-15T17:14:17.207Z,31.70
2019-06-15T17:17:10.086Z,31.80
2019-06-15T17:20:06.451Z,31.70
2019-06-15T17:22:59.189Z,31.80
2019-06-15T17:25:54.108Z,31.80
2019-06-15T17:28:47.888Z,31.80
2019-06-15T17:31:40.333Z,31.80
2019-06-15T17:34:32.985Z,31.80
2019-06-15T17:37:26.692Z,31.80
2019-06-15T17:40:20.718Z,31.80
2019-06-15T17:43:12.895Z,31.80
2019-06-15T17:46:07.300Z,31.80
2019-06-15T17:49:11.547Z,31.80
2019-06-15T17:52:06.429Z,31.80
2019-06-15T17:54:57.385Z,31.80
2019-06-15T17:57:51.317Z,31.80
2019-06-15T18:00:49.603Z,31.80
2019-06-15T18:03:52.530Z,31.80
2019-06-15T18:06:42.883Z,31.80
2019-06-15T18:09:36.845Z,31.80
2019-06-15T18:12:31.847Z,31.80
2019-06-15T18:15:26.470Z,31.80
2019-06-15T18:18:18.397Z,31.80
2019-06-15T18:21:12.035Z,31.80
2019-06-15T18:24:06.519Z,31.90
2019-06-15T18:26:59.939Z,31.90
2019-06-15T18:29:51.860Z,31.90
2019-06-15T18:32:46.553Z,31.90
2019-06-15T18:35:42.715Z,31.90
2019-06-15T18:38:37.190Z,31.90
2019-06-15T18:41:29.372Z,31.90
2019-06-15T18:44:23.362Z,31.90
2019-06-15T18:47:16.629Z,31.90
2019-06-15T18:50:10.323Z,31.90
2019-06-15T18:53:03.186Z,31.90
2019-06-15T18:55:57.355Z,31.90
2019-06-15T18:58:50.869Z,31.90
2019-06-15T19:01:43.167Z,31.90
2019-06-15T19:04:37.204Z,31.90
2019-06-15T19:07:29.885Z,31.90
2019-06-15T19:10:26.891Z,31.90
2019-06-15T19:13:19.220Z,31.90
2019-06-15T19:16:11.583Z,31.90
2019-06-15T19:19:05.059Z,31.90
2019-06-15T19:21:57.297Z,31.90
2019-06-15T19:24:51.579Z,32.00
2019-06-15T19:27:43.818Z,32.00
2019-06-15T19:30:37.421Z,31.90
2019-06-15T19:33:30.284Z,31.90
2019-06-15T19:36:24.938Z,32.00
2019-06-15T19:39:16.755Z,32.00
2019-06-15T19:42:09.189Z,32.00
2019-06-15T19:45:01.691Z,32.00
2019-06-15T19:47:54.299Z,32.00
2019-06-15T19:50:46.378Z,32.00
2019-06-15T19:53:39.767Z,32.00
2019-06-15T19:56:31.976Z,32.00
2019-06-15T19:59:26.175Z,32.00
2019-06-15T20:02:17.318Z,32.00
2019-06-15T20:05:11.719Z,32.00
2019-06-15T20:08:03.748Z,32.00
2019-06-15T20:10:56.374Z,32.00
2019-06-15T20:13:48.358Z,32.00
2019-06-15T20:16:41.674Z,32.00
2019-06-15T20:19:33.574Z,32.00
2019-06-15T20:22:27.490Z,32.00
2019-06-15T20:25:20.842Z,32.00
2019-06-15T20:28:12.962Z,32.00
2019-06-15T20:31:06.448Z,32.00
2019-06-15T20:33:58.060Z,32.00
2019-06-15T20:36:49.907Z,32.00
2019-06-15T20:39:42.638Z,32.00
2019-06-15T20:42:36.630Z,32.00
2019-06-15T20:45:31.435Z,32.00
2019-06-15T20:48:22.191Z,32.00
2019-06-15T20:51:17.120Z,32.00
2019-06-15T20:54:07.609Z,32.00
2019-06-15T20:56:59.676Z,32.00
2019-06-15T20:59:51.857Z,32.00
2019-06-15T21:02:44.223Z,32.00
2019-06-15T21:09:18.799Z,32.10
2019-06-15T21:12:23.999Z,32.00
2019-06-15T21:15:17.394Z,32.10
2019-06-15T21:18:09.616Z,32.10
2019-06-15T21:21:02.211Z,32.10
2019-06-15T21:23:56.833Z,32.10
2019-06-15T21:26:48.386Z,32.10
2019-06-15T21:30:06.819Z,32.10
2019-06-15T21:33:00.564Z,32.10
2019-06-15T21:35:52.858Z,32.10
2019-06-15T21:38:46.765Z,32.10
2019-06-15T21:41:40.186Z,32.10
2019-06-15T21:44:32.128Z,32.10
2019-06-15T21:47:26.106Z,32.10
2019-06-15T21:53:43.661Z,32.10
2019-06-15T21:56:36.758Z,32.10
2019-06-15T21:59:29.546Z,32.10
2019-06-15T22:02:22.341Z,32.10
2019-06-15T22:05:16.580Z,32.10
2019-06-15T22:08:08.216Z,32.10
2019-06-15T22:11:01.151Z,32.10
2019-06-15T22:13:53.467Z,32.10
2019-06-15T22:16:45.817Z,32.10
2019-06-15T22:20:00.367Z,32.10
2019-06-15T22:22:52.908Z,32.10
2019-06-15T22:25:46.382Z,32.10
2019-06-15T22:28:39.144Z,32.10
2019-06-15T22:31:31.144Z,32.10
2019-06-15T22:34:23.021Z,32.10
2019-06-15T22:37:17.365Z,32.10
2019-06-15T22:40:08.929Z,32.10
2019-06-15T22:43:01.237Z,32.10
2019-06-15T22:45:53.400Z,32.10
2019-06-15T22:48:46.993Z,32.10
2019-06-15T22:51:39.244Z,32.10
2019-06-15T22:54:31.339Z,32.10
2019-06-15T22:57:26.088Z,32.10
2019-06-15T23:00:18.232Z,32.10
2019-06-15T23:03:12.114Z,32.10
2019-06-15T23:06:06.733Z,32.10
2019-06-15T23:08:58.121Z,32.10
2019-06-15T23:11:50.354Z,32.10
2019-06-15T23:14:43.055Z,32.20
2019-06-15T23:17:37.209Z,32.20
2019-06-15T23:20:28.735Z,32.10
2019-06-15T23:23:21.339Z,32.20
2019-06-15T23:26:13.438Z,32.20
2019-06-15T23:29:06.882Z,32.20
2019-06-15T23:31:59.841Z,32.10
2019-06-15T23:34:52.244Z,32.20
2019-06-15T23:37:46.557Z,32.20
2019-06-15T23:40:40.379Z,32.20
2019-06-15T23:43:32.419Z,32.10
2019-06-15T23:46:27.160Z,32.20
2019-06-15T23:49:18.431Z,32.20
2019-06-15T23:52:10.679Z,32.10
2019-06-15T23:55:03.649Z,32.20
2019-06-15T23:57:57.053Z,32.20
